Time;durP1;ratioP1;P1;durP2;ratioP2;P2;SDS_P1;SDS_P2;PMS_P1;PMS_P2;Temp;Humidity;BMP_temperature;BMP_pressure;BME280_temperature;BME280_humidity;BME280_pressure;Samples;Min_cycle;Max_cycle;Signal;HPM_P1;HPM_P2
2022/03/22 00:00:46;;;;;;;1.30;1.20;;;6.40;72.90;;;;;;4434763;32;21327;-69
2022/03/22 00:03:11;;;;;;;0.82;0.82;;;6.40;73.10;;;;;;4432155;32;20097;-69
2022/03/22 00:05:40;;;;;;;1.95;1.35;;;6.30;75.80;;;;;;4433051;32;20061;-69
2022/03/22 00:08:06;;;;;;;0.70;0.70;;;6.20;75.10;;;;;;4433788;32;20120;-69
2022/03/22 00:10:32;;;;;;;2.78;1.75;;;6.20;75.90;;;;;;4434233;32;20735;-69
2022/03/22 00:12:57;;;;;;;1.12;1.00;;;6.10;78.30;;;;;;4430435;32;20081;-69
2022/03/22 00:15:24;;;;;;;4.03;1.50;;;6.00;77.80;;;;;;4430463;32;21402;-68
2022/03/22 00:17:49;;;;;;;1.60;1.33;;;5.90;78.80;;;;;;4434051;32;20082;-68
2022/03/22 00:20:16;;;;;;;0.62;0.62;;;5.80;78.40;;;;;;4430748;32;20060;-68
2022/03/22 00:22:42;;;;;;;5.87;2.00;;;5.60;79.20;;;;;;4430680;32;20131;-68
2022/03/22 00:25:08;;;;;;;1.52;1.35;;;5.70;79.20;;;;;;4432905;32;20097;-69
2022/03/22 00:28:06;;;;;;;0.70;0.70;;;5.60;79.80;;;;;;4432115;32;20073;-68
2022/03/22 00:30:26;;;;;;;3.40;1.50;;;5.50;79.50;;;;;;4419446;32;20534;-68
2022/03/22 00:32:53;;;;;;;1.10;1.05;;;5.60;80.10;;;;;;4433586;32;20123;-69
2022/03/22 00:35:20;;;;;;;1.27;0.90;;;5.60;79.30;;;;;;4430424;32;20109;-68
2022/03/22 00:37:49;;;;;;;1.15;1.10;;;5.60;77.60;;;;;;4431824;32;20081;-69
2022/03/22 00:40:17;;;;;;;1.48;1.20;;;5.70;76.70;;;;;;4436022;32;20173;-68
2022/03/22 00:42:46;;;;;;;3.83;1.23;;;5.80;79.00;;;;;;4431393;32;20076;-68
2022/03/22 00:45:13;;;;;;;0.95;0.90;;;5.70;77.60;;;;;;4434802;32;20105;-68
2022/03/22 00:47:39;;;;;;;1.48;1.37;;;5.70;79.10;;;;;;4429714;32;20081;-68
2022/03/22 00:50:05;;;;;;;0.73;0.73;;;5.60;80.10;;;;;;4434545;32;20097;-69
2022/03/22 00:52:30;;;;;;;7.62;1.62;;;5.40;81.10;;;;;;4434942;32;20077;-69
2022/03/22 00:54:55;;;;;;;1.08;0.77;;;5.40;81.70;;;;;;4432566;32;20074;-68
2022/03/22 00:57:21;;;;;;;1.70;0.90;;;5.30;81.50;;;;;;4435484;32;20127;-68
2022/03/22 01:00:04;;;;;;;1.52;1.25;;;5.30;81.50;;;;;;4432662;32;20100;-68
2022/03/22 01:02:34;;;;;;;1.00;0.90;;;5.20;81.80;;;;;;4437261;32;20135;-68
2022/03/22 01:05:00;;;;;;;0.60;0.60;;;5.20;82.20;;;;;;4436810;32;20386;-69
2022/03/22 01:07:26;;;;;;;0.70;0.70;;;5.20;81.70;;;;;;4441251;32;20556;-69
2022/03/22 01:09:52;;;;;;;1.70;1.00;;;5.10;83.40;;;;;;4437595;32;20193;-69
2022/03/22 01:12:17;;;;;;;1.25;0.90;;;5.20;82.10;;;;;;4436947;32;20154;-69
2022/03/22 01:14:43;;;;;;;7.32;2.55;;;5.20;82.80;;;;;;4436227;32;20127;-69
2022/03/22 01:17:08;;;;;;;0.60;0.60;;;5.10;81.30;;;;;;4437422;32;20081;-69
2022/03/22 01:19:35;;;;;;;6.90;2.45;;;5.00;83.10;;;;;;4436160;32;20092;-69
2022/03/22 01:22:01;;;;;;;0.80;0.80;;;4.90;84.60;;;;;;4433364;32;20518;-69
2022/03/22 01:24:27;;;;;;;0.88;0.88;;;5.00;84.50;;;;;;4436075;32;20094;-69
2022/03/22 01:26:52;;;;;;;13.32;3.12;;;5.00;84.50;;;;;;4435510;32;20441;-69
2022/03/22 01:29:18;;;;;;;2.67;2.25;;;5.00;84.90;;;;;;4435757;32;20502;-69
2022/03/22 01:31:44;;;;;;;1.33;1.23;;;4.80;84.70;;;;;;4436850;32;20101;-69
2022/03/22 01:34:11;;;;;;;17.45;1.90;;;4.80;85.00;;;;;;4436079;32;20093;-69
2022/03/22 01:36:36;;;;;;;1.73;1.62;;;4.80;84.50;;;;;;4435343;32;21330;-69
2022/03/22 01:39:02;;;;;;;0.75;0.75;;;4.70;85.50;;;;;;4432243;32;20308;-69
2022/03/22 01:41:28;;;;;;;0.60;0.60;;;4.80;84.00;;;;;;4431808;32;20074;-69
2022/03/22 01:43:54;;;;;;;3.42;1.70;;;4.70;84.60;;;;;;4429761;32;20105;-69
2022/03/22 01:46:23;;;;;;;2.45;1.42;;;4.70;86.10;;;;;;4433902;32;20074;-69
2022/03/22 01:48:49;;;;;;;5.47;1.50;;;4.60;86.80;;;;;;4435958;32;20077;-69
2022/03/22 01:51:17;;;;;;;3.53;1.23;;;4.50;86.50;;;;;;4437003;32;20127;-69
2022/03/22 01:53:43;;;;;;;1.23;1.12;;;4.60;86.20;;;;;;4436785;32;20178;-68
2022/03/22 01:56:08;;;;;;;1.15;1.08;;;4.50;85.50;;;;;;4433986;32;20070;-69
2022/03/22 01:58:34;;;;;;;7.28;3.03;;;4.40;85.40;;;;;;4433777;32;20073;-69
2022/03/22 02:06:33;;;;;;;0.65;0.65;;;4.20;87.60;;;;;;4421520;32;20494;-69
2022/03/22 02:08:59;;;;;;;6.37;1.25;;;4.30;86.90;;;;;;4431681;32;20143;-69
2022/03/22 02:11:25;;;;;;;1.27;1.20;;;4.40;86.20;;;;;;4437894;32;20087;-69
2022/03/22 02:13:50;;;;;;;1.15;1.02;;;4.40;87.00;;;;;;4436725;32;20065;-69
2022/03/22 02:16:16;;;;;;;1.08;0.93;;;4.30;87.60;;;;;;4437529;32;20169;-69
2022/03/22 02:18:42;;;;;;;1.20;1.10;;;4.20;88.40;;;;;;4435188;32;20356;-70
2022/03/22 02:21:09;;;;;;;0.80;0.80;;;4.20;85.80;;;;;;4441069;32;20084;-68
2022/03/22 02:23:52;;;;;;;12.82;2.97;;;4.30;86.30;;;;;;4434574;32;20212;-68
2022/03/22 02:26:19;;;;;;;1.37;1.27;;;4.30;86.40;;;;;;4431876;32;20065;-68
2022/03/22 02:28:45;;;;;;;0.77;0.77;;;4.40;84.40;;;;;;4437884;32;20086;-68
2022/03/22 02:31:13;;;;;;;2.47;1.05;;;4.40;84.80;;;;;;4432477;32;20880;-69
2022/03/22 02:33:41;;;;;;;0.90;0.85;;;4.50;85.00;;;;;;4436943;32;20510;-68
2022/03/22 02:36:07;;;;;;;0.82;0.82;;;4.50;85.90;;;;;;4433314;32;20584;-68
2022/03/22 02:38:32;;;;;;;2.90;0.75;;;4.40;86.10;;;;;;4431698;32;20073;-68
2022/03/22 02:40:58;;;;;;;1.87;1.27;;;4.30;86.50;;;;;;4433966;32;20076;-68
2022/03/22 02:43:24;;;;;;;0.95;0.95;;;4.20;85.80;;;;;;4430518;32;20097;-68
2022/03/22 02:45:49;;;;;;;17.35;1.30;;;4.20;86.60;;;;;;4433460;32;20592;-68
2022/03/22 02:48:15;;;;;;;1.15;1.02;;;4.20;84.60;;;;;;4437203;32;20084;-68
2022/03/22 02:50:40;;;;;;;1.50;1.17;;;4.20;84.10;;;;;;4432410;32;20390;-68
2022/03/22 02:53:06;;;;;;;0.60;0.60;;;4.20;84.20;;;;;;4437843;32;20061;-68
2022/03/22 02:55:32;;;;;;;3.08;1.30;;;4.30;83.90;;;;;;4433773;32;20414;-68
2022/03/22 02:57:58;;;;;;;2.47;1.90;;;4.30;83.50;;;;;;4436423;32;20140;-68
2022/03/22 03:00:24;;;;;;;8.25;1.67;;;4.20;83.40;;;;;;4431353;32;20345;-68
2022/03/22 03:02:51;;;;;;;1.50;1.40;;;4.10;83.50;;;;;;4435524;32;20243;-68
2022/03/22 03:05:18;;;;;;;2.28;1.70;;;4.20;83.80;;;;;;4432710;32;20175;-68
2022/03/22 03:07:44;;;;;;;1.00;1.00;;;4.10;83.90;;;;;;4435917;32;20473;-68
2022/03/22 03:10:10;;;;;;;1.35;1.17;;;4.10;84.30;;;;;;4428934;32;20085;-68
2022/03/22 03:12:36;;;;;;;0.70;0.70;;;4.00;84.80;;;;;;4436230;32;20535;-68
2022/03/22 03:15:03;;;;;;;3.78;2.50;;;4.10;84.30;;;;;;4431325;32;20069;-70
2022/03/22 03:17:29;;;;;;;0.65;0.65;;;4.10;83.90;;;;;;4429651;32;20060;-68
2022/03/22 03:19:55;;;;;;;5.35;1.98;;;4.00;84.30;;;;;;4435860;32;20109;-69
2022/03/22 03:22:20;;;;;;;1.25;1.10;;;4.00;84.50;;;;;;4435019;32;20069;-69
2022/03/22 03:24:46;;;;;;;3.00;2.45;;;4.00;84.40;;;;;;4441195;32;20065;-69
2022/03/22 03:27:11;;;;;;;1.67;0.90;;;4.00;84.20;;;;;;4439092;32;20601;-68
2022/03/22 03:29:36;;;;;;;0.95;0.90;;;3.90;85.40;;;;;;4434119;32;20139;-68
2022/03/22 03:32:02;;;;;;;1.08;1.05;;;3.90;85.10;;;;;;4432995;32;20152;-68
2022/03/22 03:34:28;;;;;;;1.27;1.10;;;4.00;85.00;;;;;;4437167;32;20070;-69
2022/03/22 03:36:53;;;;;;;0.68;0.60;;;4.10;85.00;;;;;;4437622;32;20135;-68
2022/03/22 03:39:19;;;;;;;1.08;1.08;;;4.00;86.10;;;;;;4431524;32;20427;-68
2022/03/22 03:42:02;;;;;;;3.62;0.95;;;4.00;84.80;;;;;;4435780;32;20082;-68
2022/03/22 03:47:17;;;;;;;1.40;0.95;;;3.80;85.00;;;;;;4421062;32;20084;-68
2022/03/22 03:49:46;;;;;;;1.75;1.50;;;3.80;85.20;;;;;;4435263;32;20093;-68
2022/03/22 03:52:16;;;;;;;1.27;1.10;;;3.70;85.50;;;;;;4435103;32;20073;-68
2022/03/22 03:54:42;;;;;;;2.12;1.92;;;3.80;85.50;;;;;;4437498;32;20069;-68
2022/03/22 03:57:09;;;;;;;1.40;1.30;;;3.80;85.40;;;;;;4435765;32;20072;-68
2022/03/22 03:59:35;;;;;;;1.10;0.88;;;3.80;85.10;;;;;;4433699;32;20121;-68
2022/03/22 04:02:02;;;;;;;0.77;0.77;;;3.80;85.60;;;;;;4430327;32;20081;-68
2022/03/22 04:04:27;;;;;;;0.80;0.80;;;3.80;85.60;;;;;;4435787;32;20069;-69
2022/03/22 04:06:53;;;;;;;0.70;0.70;;;3.70;85.90;;;;;;4434077;32;20529;-69
2022/03/22 04:09:19;;;;;;;3.60;1.98;;;3.70;86.00;;;;;;4431999;32;20104;-68
2022/03/22 04:11:45;;;;;;;0.60;0.60;;;3.70;86.00;;;;;;4430688;32;20064;-69
2022/03/22 04:14:11;;;;;;;1.25;0.90;;;3.60;86.20;;;;;;4430866;32;20077;-69
2022/03/22 04:16:37;;;;;;;1.15;0.95;;;3.60;86.00;;;;;;4435303;32;20089;-69
2022/03/22 04:19:04;;;;;;;1.85;1.20;;;3.60;86.40;;;;;;4433353;32;20101;-68
2022/03/22 04:21:29;;;;;;;1.12;1.12;;;3.60;86.50;;;;;;4435400;32;20089;-68
2022/03/22 04:23:55;;;;;;;1.45;1.20;;;3.60;86.60;;;;;;4433940;32;20097;-68
2022/03/22 04:26:20;;;;;;;3.65;1.12;;;3.60;86.60;;;;;;4437801;32;20549;-68
2022/03/22 04:32:46;;;;;;;0.80;0.62;;;3.40;87.40;;;;;;4424513;32;20092;-69
2022/03/22 04:34:19;;;;;;;1.15;1.02;;;3.40;87.30;;;;;;4424459;32;20555;-69
2022/03/22 04:36:46;;;;;;;1.67;1.55;;;3.50;87.60;;;;;;4437312;32;20069;-68
2022/03/22 04:39:11;;;;;;;1.73;0.95;;;3.40;87.50;;;;;;4437407;32;20124;-68
2022/03/22 04:41:37;;;;;;;1.30;1.15;;;3.40;87.60;;;;;;4435380;32;20069;-68
2022/03/22 04:44:03;;;;;;;1.17;1.08;;;3.40;88.10;;;;;;4433640;32;20073;-68
2022/03/22 04:46:29;;;;;;;1.12;1.08;;;3.30;88.10;;;;;;4435588;32;20140;-68
2022/03/22 04:48:54;;;;;;;0.80;0.80;;;3.30;88.40;;;;;;4438532;32;20468;-68
2022/03/22 04:56:51;;;;;;;1.02;0.80;;;3.30;88.70;;;;;;4420258;32;20135;-68
2022/03/22 04:59:22;;;;;;;2.12;1.77;;;3.20;89.40;;;;;;4436136;32;20631;-68
2022/03/22 05:01:49;;;;;;;2.50;1.30;;;3.10;89.50;;;;;;4436838;32;20398;-68
2022/03/22 05:04:15;;;;;;;0.90;0.85;;;3.10;89.60;;;;;;4437183;32;20485;-68
2022/03/22 05:06:41;;;;;;;0.82;0.82;;;3.00;90.00;;;;;;4436272;32;20112;-68
2022/03/22 05:09:07;;;;;;;0.98;0.88;;;3.00;90.20;;;;;;4438662;32;20572;-68
2022/03/22 05:11:34;;;;;;;0.75;0.75;;;3.00;90.30;;;;;;4434977;32;20108;-69
2022/03/22 05:14:00;;;;;;;1.77;1.40;;;3.10;90.30;;;;;;4433693;32;20105;-69
2022/03/22 05:16:26;;;;;;;1.00;1.00;;;3.00;90.30;;;;;;4432904;32;20069;-69
2022/03/22 05:18:52;;;;;;;2.80;1.87;;;3.00;90.50;;;;;;4438350;32;20119;-69
2022/03/22 05:21:18;;;;;;;0.85;0.73;;;3.00;90.60;;;;;;4428652;32;20092;-68
2022/03/22 05:23:45;;;;;;;3.22;1.75;;;2.90;90.50;;;;;;4438447;32;20068;-68
2022/03/22 05:26:12;;;;;;;1.15;1.12;;;3.00;90.50;;;;;;4437828;32;20089;-69
2022/03/22 05:28:38;;;;;;;0.68;0.68;;;3.00;90.40;;;;;;4437193;32;20080;-68
2022/03/22 05:31:08;;;;;;;2.92;1.52;;;3.10;90.30;;;;;;4433992;32;20069;-68
2022/03/22 05:33:33;;;;;;;0.60;0.60;;;3.10;90.30;;;;;;4434220;32;20106;-68
2022/03/22 05:36:00;;;;;;;37.22;1.75;;;3.10;90.30;;;;;;4435195;32;20089;-68
2022/03/22 05:38:25;;;;;;;1.40;1.30;;;3.10;90.30;;;;;;4436727;32;20070;-68
2022/03/22 05:40:52;;;;;;;0.35;0.35;;;3.10;90.50;;;;;;4433593;32;20109;-68
2022/03/22 05:43:18;;;;;;;2.33;1.62;;;3.10;90.30;;;;;;4436120;32;20080;-68
2022/03/22 05:45:48;;;;;;;4.82;1.98;;;3.10;90.50;;;;;;4439148;32;20422;-68
2022/03/22 05:48:15;;;;;;;5.03;1.92;;;3.10;90.30;;;;;;4435000;32;20073;-68
2022/03/22 05:50:41;;;;;;;0.80;0.80;;;3.20;90.10;;;;;;4439131;32;20468;-68
2022/03/22 05:53:06;;;;;;;1.02;1.02;;;3.30;90.20;;;;;;4436501;32;20128;-68
2022/03/22 05:55:32;;;;;;;1.75;1.15;;;3.40;89.70;;;;;;4432652;32;20454;-68
2022/03/22 05:57:57;;;;;;;0.90;0.90;;;3.40;89.30;;;;;;4434371;32;20518;-68
2022/03/22 06:00:23;;;;;;;1.50;1.27;;;3.50;89.00;;;;;;4437895;32;20064;-69
2022/03/22 06:02:48;;;;;;;5.75;1.10;;;3.50;89.20;;;;;;4429720;32;20428;-69
2022/03/22 06:05:14;;;;;;;0.77;0.77;;;3.50;89.30;;;;;;4431013;32;20555;-69
2022/03/22 06:07:41;;;;;;;6.03;2.97;;;3.60;88.80;;;;;;4433299;32;20094;-69
2022/03/22 06:10:08;;;;;;;0.93;0.93;;;3.60;88.30;;;;;;4429694;32;20278;-70
2022/03/22 06:12:39;;;;;;;1.77;1.37;;;3.70;88.20;;;;;;4431368;32;20061;-69
2022/03/22 06:15:22;;;;;;;0.52;0.52;;;3.90;87.90;;;;;;4433772;32;20540;-69
2022/03/22 06:17:49;;;;;;;1.73;1.37;;;4.00;88.80;;;;;;4422344;32;20090;-69
2022/03/22 06:20:16;;;;;;;3.83;1.75;;;4.00;87.20;;;;;;4435088;32;20477;-69
2022/03/22 06:22:42;;;;;;;4.15;2.20;;;4.10;86.70;;;;;;4436117;32;20097;-69
2022/03/22 06:25:10;;;;;;;0.75;0.75;;;4.10;86.50;;;;;;4429939;32;20065;-69
2022/03/22 06:27:35;;;;;;;1.30;1.20;;;4.30;86.60;;;;;;4422334;32;20131;-69
2022/03/22 06:30:04;;;;;;;1.95;1.15;;;4.40;86.30;;;;;;4431581;32;20088;-70
2022/03/22 06:32:29;;;;;;;13.75;1.92;;;4.40;85.40;;;;;;4409238;32;20076;-68
2022/03/22 06:34:56;;;;;;;5.35;1.42;;;4.60;84.80;;;;;;4432290;32;20096;-69
2022/03/22 06:37:23;;;;;;;1.00;1.00;;;4.60;84.50;;;;;;4426475;32;20089;-69
2022/03/22 06:39:49;;;;;;;1.55;1.15;;;4.70;83.50;;;;;;4431667;32;21402;-67
2022/03/22 06:42:16;;;;;;;2.60;1.60;;;4.80;84.10;;;;;;4428785;32;20073;-69
2022/03/22 06:44:42;;;;;;;2.37;1.05;;;4.90;82.80;;;;;;4424669;32;20485;-69
2022/03/22 06:47:08;;;;;;;4.32;1.87;;;4.90;82.80;;;;;;4423084;32;20093;-69
2022/03/22 06:49:34;;;;;;;1.55;1.45;;;5.00;82.00;;;;;;4422466;32;20097;-70
2022/03/22 06:51:59;;;;;;;0.93;0.85;;;5.10;82.20;;;;;;4419857;32;20068;-69
2022/03/22 06:54:26;;;;;;;4.40;2.35;;;5.30;81.80;;;;;;4415968;32;20065;-69
2022/03/22 06:56:52;;;;;;;4.97;2.58;;;5.40;80.20;;;;;;4419935;32;20140;-68
2022/03/22 06:59:17;;;;;;;1.48;1.37;;;5.50;79.70;;;;;;4410580;32;20078;-68
2022/03/22 07:01:43;;;;;;;1.80;0.95;;;5.60;79.60;;;;;;4412676;32;20312;-68
2022/03/22 07:04:08;;;;;;;5.97;3.15;;;5.70;80.20;;;;;;4408627;32;20178;-68
2022/03/22 07:06:34;;;;;;;0.88;0.88;;;5.80;78.50;;;;;;4405160;32;20170;-68
2022/03/22 07:08:59;;;;;;;2.50;2.12;;;6.00;78.80;;;;;;4415987;32;20086;-68
2022/03/22 07:11:56;;;;;;;2.92;1.95;;;6.10;77.60;;;;;;4415301;32;20112;-69
2022/03/22 07:14:10;;;;;;;1.30;1.23;;;6.30;76.70;;;;;;4396074;32;21693;-68
2022/03/22 07:16:36;;;;;;;2.92;1.05;;;6.30;75.10;;;;;;4413071;32;20440;-68
2022/03/22 07:19:01;;;;;;;1.37;1.02;;;6.30;74.10;;;;;;4407414;32;20112;-68
2022/03/22 07:21:29;;;;;;;0.70;0.70;;;6.30;72.70;;;;;;4414167;32;20097;-67
2022/03/22 07:23:55;;;;;;;1.23;1.12;;;6.40;72.30;;;;;;4419879;32;20174;-67
2022/03/22 07:26:21;;;;;;;5.07;1.62;;;6.40;72.50;;;;;;4417118;32;20190;-68
2022/03/22 07:28:46;;;;;;;1.27;1.10;;;6.60;72.70;;;;;;4420360;32;20084;-68
2022/03/22 07:31:12;;;;;;;1.85;1.37;;;6.80;72.10;;;;;;4408105;32;20211;-68
2022/03/22 07:33:37;;;;;;;0.88;0.88;;;6.90;71.30;;;;;;4412487;32;20153;-67
2022/03/22 07:36:04;;;;;;;2.28;1.45;;;6.90;69.60;;;;;;4409723;32;85827;-67
2022/03/22 07:38:30;;;;;;;4.20;1.60;;;6.80;70.20;;;;;;4403807;32;20092;-67
2022/03/22 07:40:56;;;;;;;0.68;0.68;;;6.90;70.30;;;;;;4411472;32;20149;-68
2022/03/22 07:43:21;;;;;;;1.65;1.52;;;6.90;70.10;;;;;;4414165;32;20458;-68
2022/03/22 07:45:47;;;;;;;2.87;1.95;;;7.00;69.40;;;;;;4412327;32;20092;-67
2022/03/22 07:48:13;;;;;;;5.40;1.45;;;7.00;69.50;;;;;;4404406;32;20351;-66
2022/03/22 07:53:10;;;;;;;12.63;4.25;;;7.00;70.10;;;;;;4405264;32;20260;-67
2022/03/22 07:53:24;;;;;;;1.08;0.73;;;7.20;70.10;;;;;;4390131;32;20439;-67
2022/03/22 07:55:49;;;;;;;1.40;1.20;;;7.40;69.60;;;;;;4410118;32;20118;-68
2022/03/22 07:58:15;;;;;;;1.08;1.00;;;7.50;68.30;;;;;;4399855;32;20177;-68
2022/03/22 08:00:41;;;;;;;3.20;1.15;;;7.60;69.10;;;;;;4410804;32;20211;-67
2022/03/22 08:03:10;;;;;;;6.75;1.20;;;7.70;69.00;;;;;;4409995;32;21201;-68
2022/03/22 08:05:37;;;;;;;1.10;1.00;;;7.80;68.30;;;;;;4404930;32;21533;-68
2022/03/22 08:08:04;;;;;;;3.35;1.33;;;7.90;68.40;;;;;;4414945;32;22138;-68
2022/03/22 08:10:31;;;;;;;2.20;1.27;;;8.10;67.70;;;;;;4414398;32;20088;-68
2022/03/22 08:12:58;;;;;;;3.03;1.55;;;8.10;67.90;;;;;;4404672;32;20087;-67
2022/03/22 08:15:24;;;;;;;2.08;1.48;;;8.30;67.70;;;;;;4400289;32;20706;-69
2022/03/22 08:17:49;;;;;;;11.98;2.05;;;8.40;68.50;;;;;;4404075;32;20190;-68
2022/03/22 08:20:15;;;;;;;1.08;0.95;;;8.60;67.10;;;;;;4401390;32;20096;-68
2022/03/22 08:22:59;;;;;;;1.98;1.42;;;8.60;66.90;;;;;;4402277;32;20461;-67
2022/03/22 08:25:27;;;;;;;3.00;1.42;;;8.70;66.40;;;;;;4409131;32;20113;-69
2022/03/22 08:27:54;;;;;;;1.42;1.30;;;8.90;68.10;;;;;;4409293;32;20575;-68
2022/03/22 08:30:21;;;;;;;0.98;0.98;;;9.10;66.40;;;;;;4403976;32;20068;-67
2022/03/22 08:32:49;;;;;;;1.25;1.15;;;9.10;64.40;;;;;;4404465;32;20218;-67
2022/03/22 08:35:15;;;;;;;4.65;1.60;;;8.90;65.70;;;;;;4405125;32;20195;-67
2022/03/22 08:37:40;;;;;;;4.05;1.73;;;9.00;65.70;;;;;;4413201;32;20105;-68
2022/03/22 08:40:07;;;;;;;1.67;1.08;;;9.10;64.60;;;;;;4406847;32;20088;-65
2022/03/22 08:42:32;;;;;;;1.77;1.45;;;9.30;64.50;;;;;;4405489;32;20125;-68
2022/03/22 08:44:59;;;;;;;1.62;0.98;;;9.30;63.60;;;;;;4401685;32;20101;-68
2022/03/22 08:47:26;;;;;;;2.70;1.70;;;9.40;64.00;;;;;;4401403;32;20396;-68
2022/03/22 08:49:52;;;;;;;1.45;1.30;;;9.70;64.30;;;;;;4395107;32;20154;-68
2022/03/22 08:52:17;;;;;;;1.60;1.50;;;9.90;63.30;;;;;;4399334;32;20108;-68
2022/03/22 08:54:43;;;;;;;1.27;1.17;;;10.20;61.80;;;;;;4393243;32;20683;-67
2022/03/22 08:57:08;;;;;;;1.17;0.93;;;10.40;60.90;;;;;;4396291;32;20106;-68
2022/03/22 08:59:35;;;;;;;0.80;0.80;;;10.40;59.90;;;;;;4393031;32;20069;-68
2022/03/22 09:02:01;;;;;;;2.65;1.05;;;10.30;59.50;;;;;;4396855;32;20109;-69
2022/03/22 09:07:14;;;;;;;3.22;1.60;;;10.60;59.20;;;;;;4385893;32;21416;-68
2022/03/22 09:09:39;;;;;;;1.15;1.05;;;10.70;59.70;;;;;;4403140;32;20136;-69
2022/03/22 09:12:05;;;;;;;2.33;1.05;;;11.00;59.10;;;;;;4401443;32;20113;-68
2022/03/22 09:14:31;;;;;;;1.10;1.00;;;11.00;59.00;;;;;;4397445;32;20085;-68
2022/03/22 09:16:56;;;;;;;1.58;1.30;;;11.40;59.10;;;;;;4393331;32;20211;-67
2022/03/22 09:19:22;;;;;;;1.70;1.02;;;11.30;56.80;;;;;;4397636;32;21523;-68
2022/03/22 09:21:48;;;;;;;3.80;1.80;;;11.30;57.70;;;;;;4399278;32;20077;-68
2022/03/22 09:24:14;;;;;;;0.70;0.70;;;11.50;57.70;;;;;;4400940;32;20513;-68
2022/03/22 09:26:39;;;;;;;1.15;0.80;;;11.60;57.10;;;;;;4400698;32;20105;-68
2022/03/22 09:29:05;;;;;;;2.12;1.23;;;11.60;57.00;;;;;;4397590;32;21693;-68
2022/03/22 09:31:30;;;;;;;4.15;1.73;;;11.70;56.90;;;;;;4397394;32;20572;-68
2022/03/22 09:33:57;;;;;;;2.90;1.45;;;11.80;56.90;;;;;;4404152;32;20625;-68
2022/03/22 09:36:23;;;;;;;1.50;1.05;;;12.20;57.40;;;;;;4402901;32;20507;-68
2022/03/22 09:38:49;;;;;;;1.40;1.00;;;12.70;56.80;;;;;;4407987;32;20619;-68
2022/03/22 09:41:15;;;;;;;1.77;1.08;;;12.80;55.70;;;;;;4406586;32;20311;-67
2022/03/22 09:43:47;;;;;;;2.95;1.00;;;13.10;55.20;;;;;;4405078;32;20862;-67
2022/03/22 09:46:18;;;;;;;8.27;1.48;;;13.30;54.20;;;;;;4410997;32;20293;-67
2022/03/22 09:48:44;;;;;;;;;;;13.40;53.50;;;;;;4409426;32;20093;-67
2022/03/22 09:52:10;;;;;;;2.75;1.20;;;13.40;54.60;;;;;;4405966;32;20180;-68
2022/03/22 09:53:55;;;;;;;3.08;1.33;;;13.70;54.10;;;;;;4389188;32;20495;-68
2022/03/22 09:56:22;;;;;;;1.58;1.23;;;13.70;53.20;;;;;;4408879;32;20120;-67
2022/03/22 09:58:48;;;;;;;1.73;1.05;;;13.90;52.60;;;;;;4406873;32;20097;-67
2022/03/22 10:01:13;;;;;;;1.35;1.15;;;14.10;53.30;;;;;;4405306;32;20191;-67
2022/03/22 10:03:39;;;;;;;2.15;1.37;;;14.30;52.60;;;;;;4402386;32;20065;-67
2022/03/22 10:06:07;;;;;;;1.60;1.10;;;14.30;51.90;;;;;;4409940;32;20124;-67
2022/03/22 10:08:36;;;;;;;2.28;1.25;;;14.40;52.80;;;;;;4407545;32;21630;-67
2022/03/22 10:11:02;;;;;;;5.18;1.00;;;14.60;51.70;;;;;;4396393;32;20567;-68
2022/03/22 10:13:29;;;;;;;1.40;1.17;;;14.60;51.50;;;;;;4395274;32;20117;-68
2022/03/22 10:16:05;;;;;;;1.20;1.20;;;14.50;51.10;;;;;;4397012;32;20101;-68
2022/03/22 10:18:34;;;;;;;0.75;0.75;;;14.60;50.70;;;;;;4395788;32;20586;-68
2022/03/22 10:21:02;;;;;;;1.95;1.20;;;14.70;50.80;;;;;;4394940;32;20718;-68
2022/03/22 10:23:30;;;;;;;1.10;0.90;;;14.80;49.80;;;;;;4411053;32;20463;-68
2022/03/22 10:26:05;;;;;;;5.62;2.20;;;15.00;50.20;;;;;;4406192;32;20658;-67
2022/03/22 10:28:31;;;;;;;1.10;1.00;;;15.00;49.70;;;;;;4404664;32;20200;-67
2022/03/22 10:30:57;;;;;;;3.90;1.73;;;15.20;50.20;;;;;;4404989;32;20228;-66
2022/03/22 10:33:23;;;;;;;2.53;1.05;;;15.30;49.60;;;;;;4408140;32;20525;-66
2022/03/22 10:35:49;;;;;;;1.30;1.05;;;15.50;48.30;;;;;;4403588;32;20177;-66
2022/03/22 10:38:16;;;;;;;1.40;0.77;;;15.50;48.20;;;;;;4405739;32;20097;-66
2022/03/22 10:40:45;;;;;;;1.15;1.00;;;15.50;47.50;;;;;;4416528;32;20113;-67
2022/03/22 10:43:14;;;;;;;16.17;0.90;;;15.30;47.90;;;;;;4404151;32;20097;-66
2022/03/22 10:45:44;;;;;;;0.88;0.88;;;15.30;48.30;;;;;;4405885;32;20113;-67
2022/03/22 10:48:15;;;;;;;2.20;0.93;;;15.70;48.00;;;;;;4405942;32;20085;-67
2022/03/22 10:50:41;;;;;;;0.98;0.85;;;16.10;46.80;;;;;;4406563;32;20114;-67
2022/03/22 10:53:06;;;;;;;3.00;1.27;;;16.40;47.70;;;;;;4414382;32;20058;-67
2022/03/22 10:55:32;;;;;;;1.08;0.95;;;16.50;47.50;;;;;;4416740;32;20915;-67
2022/03/22 10:58:01;;;;;;;2.28;1.02;;;16.30;47.30;;;;;;4411605;32;20081;-67
2022/03/22 11:00:27;;;;;;;2.37;1.30;;;16.50;45.50;;;;;;4409111;32;20207;-67
2022/03/22 11:02:55;;;;;;;1.15;1.05;;;16.30;45.80;;;;;;4417591;32;20421;-67
2022/03/22 11:05:22;;;;;;;1.15;1.05;;;16.30;45.50;;;;;;4408505;32;20072;-67
2022/03/22 11:07:51;;;;;;;3.15;1.12;;;16.20;46.00;;;;;;4405884;32;20085;-67
2022/03/22 11:10:18;;;;;;;1.23;1.12;;;16.40;46.10;;;;;;4409116;32;20841;-67
2022/03/22 11:12:44;;;;;;;1.25;0.90;;;16.70;46.50;;;;;;4403377;32;20092;-67
2022/03/22 11:15:12;;;;;;;1.87;1.17;;;17.00;44.90;;;;;;4412723;32;20112;-67
2022/03/22 11:17:39;;;;;;;6.37;1.08;;;17.30;45.60;;;;;;4403734;32;20600;-67
2022/03/22 11:20:08;;;;;;;1.17;1.08;;;17.60;44.20;;;;;;4407199;32;20460;-67
2022/03/22 11:22:34;;;;;;;1.33;1.10;;;17.80;43.20;;;;;;4410660;32;20105;-69
2022/03/22 11:25:09;;;;;;;1.52;0.90;;;17.70;43.70;;;;;;4417120;32;20109;-67
2022/03/22 11:27:35;;;;;;;1.08;0.85;;;18.00;43.00;;;;;;4414883;32;20371;-66
2022/03/22 11:30:03;;;;;;;1.40;0.77;;;18.30;43.30;;;;;;4408319;32;20871;-68
2022/03/22 11:34:30;;;;;;;0.95;0.70;;;18.30;42.40;;;;;;4404240;32;21251;-67
2022/03/22 11:35:16;;;;;;;0.70;0.62;;;18.30;42.60;;;;;;4395683;32;20081;-68
2022/03/22 11:37:42;;;;;;;0.95;0.93;;;18.60;41.80;;;;;;4416636;32;20148;-67
2022/03/22 11:42:19;;;;;;;0.62;0.62;;;19.00;42.50;;;;;;4419202;32;20085;-68
2022/03/22 11:43:10;;;;;;;0.98;0.90;;;19.00;41.30;;;;;;4407921;32;20085;-67
2022/03/22 11:45:51;;;;;;;2.10;1.35;;;19.40;39.80;;;;;;4420857;32;20106;-68
2022/03/22 11:48:18;;;;;;;1.15;1.02;;;19.30;39.90;;;;;;4422192;32;20635;-67
2022/03/22 11:50:44;;;;;;;2.65;1.48;;;19.20;38.30;;;;;;4424904;32;20660;-66
2022/03/22 11:53:18;;;;;;;0.65;0.65;;;19.20;39.10;;;;;;4413412;32;20212;-67
2022/03/22 11:55:50;;;;;;;1.08;0.77;;;19.20;39.00;;;;;;4405969;32;20080;-68
2022/03/22 11:58:15;;;;;;;3.83;0.77;;;19.70;39.00;;;;;;4400767;32;20112;-67
2022/03/22 12:00:52;;;;;;;3.65;1.65;;;19.80;39.00;;;;;;4394346;32;20131;-67
2022/03/22 12:03:20;;;;;;;1.67;1.33;;;20.00;38.50;;;;;;4393099;32;20505;-67
2022/03/22 12:05:46;;;;;;;1.20;1.02;;;20.20;38.70;;;;;;4408731;32;21340;-67
2022/03/22 12:08:14;;;;;;;1.77;1.00;;;20.50;38.50;;;;;;4408600;32;20182;-67
2022/03/22 12:10:40;;;;;;;0.75;0.75;;;20.30;37.50;;;;;;4408453;32;20098;-67
2022/03/22 12:13:05;;;;;;;1.15;1.00;;;20.60;37.20;;;;;;4396447;32;20097;-67
2022/03/22 12:15:31;;;;;;;0.93;0.80;;;20.70;37.60;;;;;;4406291;32;20334;-67
2022/03/22 12:17:57;;;;;;;0.60;0.60;;;20.90;37.10;;;;;;4407638;32;21624;-67
2022/03/22 12:20:23;;;;;;;0.70;0.70;;;20.40;37.00;;;;;;4407704;32;20097;-67
2022/03/22 12:22:53;;;;;;;0.70;0.70;;;20.50;37.00;;;;;;4405658;32;20842;-67
2022/03/22 12:25:20;;;;;;;0.68;0.68;;;20.70;36.60;;;;;;4393604;32;20104;-66
2022/03/22 12:27:51;;;;;;;0.70;0.60;;;21.00;37.10;;;;;;4399415;32;21308;-67
2022/03/22 12:30:18;;;;;;;0.73;0.68;;;21.30;36.40;;;;;;4401769;32;20152;-66
2022/03/22 12:32:44;;;;;;;0.68;0.68;;;21.30;36.70;;;;;;4404074;32;21589;-66
2022/03/22 12:35:11;;;;;;;0.65;0.60;;;21.80;35.40;;;;;;4403577;32;20216;-66
2022/03/22 12:37:37;;;;;;;1.73;0.70;;;22.40;34.50;;;;;;4408953;32;20097;-66
2022/03/22 12:40:03;;;;;;;0.85;0.85;;;22.40;35.20;;;;;;4400973;32;20092;-66
2022/03/22 12:42:31;;;;;;;3.28;1.67;;;22.70;34.20;;;;;;4414882;32;20077;-66
2022/03/22 12:44:57;;;;;;;0.88;0.88;;;23.00;34.10;;;;;;4410324;32;20473;-68
2022/03/22 12:47:22;;;;;;;1.02;0.93;;;22.50;33.90;;;;;;4410040;32;20116;-66
2022/03/22 12:49:48;;;;;;;0.52;0.52;;;22.20;34.80;;;;;;4411116;32;21101;-67
2022/03/22 12:52:14;;;;;;;0.68;0.68;;;22.70;35.30;;;;;;4419072;32;20106;-67
2022/03/22 12:54:41;;;;;;;0.62;0.62;;;23.10;34.20;;;;;;4413694;32;20510;-67
2022/03/22 12:57:10;;;;;;;0.40;0.40;;;22.70;34.90;;;;;;4415836;32;20471;-67
2022/03/22 12:59:36;;;;;;;0.50;0.50;;;22.70;34.30;;;;;;4410695;32;20109;-67
2022/03/22 13:02:06;;;;;;;3.78;1.73;;;22.80;34.40;;;;;;4398129;32;20065;-67
2022/03/22 13:04:36;;;;;;;1.47;0.60;;;23.10;34.60;;;;;;4414158;32;20247;-67
2022/03/22 13:07:05;;;;;;;1.27;1.13;;;23.30;34.10;;;;;;4420496;32;20146;-67
2022/03/22 13:11:31;;;;;;;1.90;1.00;;;23.00;34.30;;;;;;4419339;32;20093;-67
2022/03/22 13:12:18;;;;;;;1.23;0.90;;;23.60;34.40;;;;;;4406871;32;20081;-67